Time;durP1;ratioP1;P1;durP2;ratioP2;P2;SDS_P1;SDS_P2;PMS_P1;PMS_P2;Temp;Humidity;BMP_temperature;BMP_pressure;BME280_temperature;BME280_humidity;BME280_pressure;Samples;Min_cycle;Max_cycle;Signal;HPM_P1;HPM_P2
2021/05/30 00:00:33;;;;;;;40.28;18.25;;;;;;;14.29;62.69;102388.22;5025960;28;20030;-83
2021/05/30 00:02:58;;;;;;;42.72;17.33;;;;;;;13.98;64.23;102391.47;5009483;28;20064;-82
2021/05/30 00:05:24;;;;;;;33.70;16.38;;;;;;;14.00;64.70;102386.81;5009491;28;20038;-84
2021/05/30 00:07:49;;;;;;;30.05;14.55;;;;;;;13.65;65.65;102378.69;5026135;28;20553;-83
2021/05/30 00:10:15;;;;;;;37.75;16.98;;;;;;;13.44;66.89;102385.69;5011198;28;20040;-83
2021/05/30 00:12:40;;;;;;;36.20;16.27;;;;;;;13.70;65.75;102383.72;5010383;28;20026;-83
2021/05/30 00:15:10;;;;;;;33.30;17.80;;;;;;;14.07;64.32;102387.19;5010860;28;20474;-84
2021/05/30 00:17:36;;;;;;;45.47;19.75;;;;;;;14.02;64.25;102378.59;5010619;28;20034;-83
2021/05/30 00:20:01;;;;;;;41.03;17.92;;;;;;;13.90;64.83;102372.28;5009418;28;20034;-83
2021/05/30 00:22:27;;;;;;;40.92;18.08;;;;;;;13.91;65.07;102373.13;5025906;28;20034;-84
2021/05/30 00:24:52;;;;;;;53.65;20.38;;;;;;;13.83;65.14;102373.69;5011269;28;20056;-84
2021/05/30 00:27:17;;;;;;;43.58;19.20;;;;;;;13.50;66.41;102377.13;5010687;28;20030;-83
2021/05/30 00:29:43;;;;;;;42.80;17.20;;;;;;;13.54;66.56;102379.47;5010130;28;20069;-83
2021/05/30 00:32:08;;;;;;;40.22;18.58;;;;;;;13.60;66.52;102378.16;5010481;28;20091;-83
2021/05/30 00:34:33;;;;;;;34.65;16.30;;;;;;;13.63;66.41;102377.06;5010698;28;20030;-83
2021/05/30 00:36:59;;;;;;;36.60;17.67;;;;;;;13.84;65.64;102374.59;5009992;28;20026;-83
2021/05/30 00:39:24;;;;;;;39.42;18.30;;;;;;;13.97;64.75;102370.81;5010329;28;20060;-83
2021/05/30 00:41:50;;;;;;;42.08;21.27;;;;;;;13.85;65.07;102379.88;5010167;28;20483;-83
2021/05/30 00:44:24;;;;;;;34.05;16.50;;;;;;;13.82;64.92;102379.25;5010429;28;20113;-84
2021/05/30 00:46:51;;;;;;;40.03;19.67;;;;;;;13.71;65.59;102375.53;5008946;28;20808;-83
2021/05/30 00:49:18;;;;;;;46.03;18.98;;;;;;;13.82;65.27;102384.66;5024948;28;20049;-84
2021/05/30 00:51:44;;;;;;;35.17;18.08;;;;;;;13.55;66.23;102380.34;5025020;28;20121;-83
2021/05/30 00:54:09;;;;;;;35.30;17.60;;;;;;;13.86;64.95;102386.13;5024965;28;20026;-83
2021/05/30 00:56:35;;;;;;;42.67;18.30;;;;;;;13.90;64.65;102382.22;5025298;28;20029;-83
2021/05/30 00:59:01;;;;;;;43.05;20.30;;;;;;;13.99;64.46;102386.94;5025321;28;20034;-83
2021/05/30 01:01:26;;;;;;;36.30;17.80;;;;;;;13.88;64.82;102381.47;5010214;28;20080;-83
2021/05/30 01:03:52;;;;;;;43.40;20.33;;;;;;;14.06;64.24;102387.31;5010147;28;20465;-83
2021/05/30 01:06:17;;;;;;;36.25;20.17;;;;;;;13.94;64.76;102389.13;5009899;28;20084;-83
2021/05/30 01:08:43;;;;;;;53.38;23.08;;;;;;;13.97;64.84;102391.59;5009873;28;20034;-84
2021/05/30 01:11:15;;;;;;;48.95;20.75;;;;;;;13.97;64.67;102381.63;5009816;28;20030;-84
2021/05/30 01:13:42;;;;;;;41.90;21.10;;;;;;;14.01;64.20;102382.25;5010227;28;20105;-83
2021/05/30 01:16:08;;;;;;;48.35;20.73;;;;;;;13.94;64.46;102389.13;5009892;28;20034;-83
2021/05/30 01:18:36;;;;;;;42.40;21.20;;;;;;;14.06;63.99;102380.06;5009965;28;20045;-82
2021/05/30 01:21:02;;;;;;;44.88;20.02;;;;;;;14.15;63.66;102381.19;5009882;28;20030;-83
2021/05/30 01:23:27;;;;;;;43.80;20.65;;;;;;;14.23;63.21;102378.75;5010108;28;20037;-83
2021/05/30 01:25:52;;;;;;;47.30;22.30;;;;;;;14.21;63.32;102383.44;5008502;28;20026;-84
2021/05/30 01:28:19;;;;;;;46.25;21.52;;;;;;;14.04;64.33;102382.00;5008263;28;20029;-83
2021/05/30 01:30:45;;;;;;;47.42;21.83;;;;;;;14.13;64.19;102383.16;5009817;28;20033;-83
2021/05/30 01:33:11;;;;;;;45.03;21.23;;;;;;;14.07;63.75;102376.38;5009885;28;20064;-83
2021/05/30 01:35:37;;;;;;;39.45;20.35;;;;;;;14.10;63.79;102373.41;5009638;28;20421;-83
2021/05/30 01:38:03;;;;;;;49.60;23.85;;;;;;;14.04;64.18;102379.31;5009712;28;20025;-83
2021/05/30 01:40:28;;;;;;;54.97;25.33;;;;;;;13.73;65.09;102369.97;5009823;28;20029;-83
2021/05/30 01:42:55;;;;;;;42.83;22.33;;;;;;;13.74;65.07;102378.00;5009894;28;20109;-83
2021/05/30 01:45:22;;;;;;;48.80;23.10;;;;;;;13.80;65.29;102373.94;5024844;28;20033;-84
2021/05/30 01:47:48;;;;;;;41.88;19.90;;;;;;;13.63;65.71;102379.78;5009561;28;20058;-83
2021/05/30 01:50:22;;;;;;;51.03;22.50;;;;;;;13.63;65.58;102380.63;5009627;28;20073;-83
2021/05/30 01:52:48;;;;;;;34.92;18.80;;;;;;;13.76;65.31;102384.13;5009384;28;20489;-83
2021/05/30 01:55:44;;;;;;;39.22;21.15;;;;;;;13.37;66.44;102390.66;5009549;28;20038;-83
2021/05/30 01:58:12;;;;;;;43.75;22.15;;;;;;;13.35;66.39;102387.25;5008445;28;20038;-83
2021/05/30 02:00:37;;;;;;;48.50;21.38;;;;;;;13.38;66.45;102391.56;5011031;28;20117;-83
2021/05/30 02:03:03;;;;;;;75.38;25.27;;;;;;;13.11;67.90;102385.31;5028236;28;20113;-83
2021/05/30 02:05:29;;;;;;;45.55;24.90;;;;;;;13.22;67.92;102391.78;5013124;28;20379;-83
2021/05/30 02:07:54;;;;;;;51.78;24.70;;;;;;;13.10;68.33;102394.41;5013219;28;20490;-83
2021/05/30 02:10:23;;;;;;;44.17;20.33;;;;;;;13.16;68.22;102376.00;5011689;28;20065;-83
2021/05/30 02:12:51;;;;;;;39.85;21.70;;;;;;;13.29;67.36;102385.84;5027839;28;20022;-82
2021/05/30 02:15:18;;;;;;;57.35;21.50;;;;;;;13.03;68.72;102379.59;5011456;28;20109;-83
2021/05/30 02:17:43;;;;;;;99.18;23.63;;;;;;;13.22;68.44;102381.84;5012677;28;20049;-83
2021/05/30 02:20:12;;;;;;;57.95;25.00;;;;;;;13.29;68.02;102372.34;5012568;28;20030;-83
2021/05/30 02:22:37;;;;;;;45.60;24.52;;;;;;;13.49;66.75;102375.38;5011818;28;20021;-83
2021/05/30 02:25:05;;;;;;;86.93;24.75;;;;;;;13.55;66.62;102383.91;5028150;28;20041;-83
2021/05/30 02:27:30;;;;;;;120.53;24.05;;;;;;;13.32;67.70;102382.91;5027901;28;20030;-83
2021/05/30 02:29:55;;;;;;;109.25;24.00;;;;;;;13.46;67.47;102378.31;5011064;28;20040;-83
2021/05/30 02:32:21;;;;;;;85.18;24.70;;;;;;;13.60;66.70;102374.59;5012599;28;20061;-83
2021/05/30 02:34:46;;;;;;;45.47;20.80;;;;;;;13.54;67.23;102378.63;5011604;28;20025;-84
2021/05/30 02:37:14;;;;;;;67.25;22.35;;;;;;;13.31;68.37;102375.81;5012887;28;20036;-83
2021/05/30 02:39:40;;;;;;;112.63;24.83;;;;;;;13.24;69.08;102382.59;5012166;28;20099;-82
2021/05/30 02:42:07;;;;;;;73.28;27.50;;;;;;;13.10;69.85;102382.75;5010780;28;20394;-83
2021/05/30 02:44:32;;;;;;;52.85;25.05;;;;;;;13.53;67.96;102385.88;5010982;28;20030;-83
2021/05/30 02:46:58;;;;;;;73.40;25.13;;;;;;;13.48;67.78;102377.22;5027194;28;20026;-83
2021/05/30 02:49:24;;;;;;;75.30;25.45;;;;;;;13.41;68.44;102378.69;5012710;28;20049;-84
2021/05/30 02:51:50;;;;;;;55.13;25.70;;;;;;;13.57;67.66;102376.53;5012671;28;20439;-83
2021/05/30 02:54:16;;;;;;;66.07;23.63;;;;;;;13.82;66.67;102376.53;5012193;28;20057;-83
2021/05/30 02:56:42;;;;;;;36.45;21.27;;;;;;;13.93;65.78;102379.28;5012159;28;20050;-83
2021/05/30 02:59:07;;;;;;;52.50;23.20;;;;;;;13.99;66.13;102378.81;5011723;28;20026;-83
2021/05/30 03:01:32;;;;;;;44.00;22.60;;;;;;;14.06;65.54;102380.06;5012566;28;20378;-83
2021/05/30 03:03:58;;;;;;;54.03;25.70;;;;;;;14.05;65.70;102375.63;5010339;28;20117;-83
2021/05/30 03:06:26;;;;;;;39.85;22.52;;;;;;;14.05;65.45;102377.47;5012347;28;20112;-83
2021/05/30 03:08:52;;;;;;;100.35;24.77;;;;;;;13.88;66.32;102384.19;5010471;28;20034;-83
2021/05/30 03:11:19;;;;;;;257.60;35.22;;;;;;;13.66;67.31;102387.66;5012106;28;20038;-84
2021/05/30 03:13:44;;;;;;;108.82;28.50;;;;;;;13.65;67.75;102384.09;5012424;28;20112;-83
2021/05/30 03:16:10;;;;;;;139.32;25.23;;;;;;;13.65;67.83;102385.91;5026823;28;20116;-83
2021/05/30 03:18:35;;;;;;;195.95;29.13;;;;;;;13.61;68.05;102382.56;5010109;28;20092;-83
2021/05/30 03:21:00;;;;;;;124.13;27.15;;;;;;;13.73;67.70;102392.47;5011947;28;20030;-83
2021/05/30 03:23:26;;;;;;;84.15;24.10;;;;;;;13.90;66.94;102387.63;5012083;28;20030;-84
2021/05/30 03:25:51;;;;;;;79.13;25.63;;;;;;;13.84;67.39;102393.53;5027306;28;20030;-83
2021/05/30 03:28:17;;;;;;;212.25;29.48;;;;;;;13.79;67.28;102389.28;5011716;28;20030;-84
2021/05/30 03:30:42;;;;;;;233.70;34.58;;;;;;;13.36;68.96;102385.41;5011769;28;20025;-83
2021/05/30 03:33:08;;;;;;;162.93;27.98;;;;;;;13.51;69.00;102392.38;5011951;28;20030;-83
2021/05/30 03:35:33;;;;;;;121.50;23.70;;;;;;;13.33;69.52;102397.28;5011871;28;20026;-83
2021/05/30 03:38:00;;;;;;;175.20;27.25;;;;;;;13.56;68.87;102401.88;5009938;28;20445;-83
2021/05/30 03:40:31;;;;;;;336.42;33.70;;;;;;;13.64;68.84;102397.72;5026852;28;20550;-84
2021/05/30 03:42:57;;;;;;;302.23;30.02;;;;;;;13.44;69.30;102402.78;5011600;28;20049;-83
2021/05/30 03:45:24;;;;;;;379.77;31.38;;;;;;;13.35;69.52;102403.47;5011714;28;20383;-83
2021/05/30 03:47:50;;;;;;;224.68;30.38;;;;;;;13.36;70.06;102396.22;5010965;28;20072;-84
2021/05/30 03:50:16;;;;;;;169.05;26.15;;;;;;;13.40;69.75;102397.69;5011679;28;20474;-84
2021/05/30 03:52:41;;;;;;;664.25;44.50;;;;;;;13.33;70.02;102402.69;5010281;28;20410;-83
2021/05/30 03:55:09;;;;;;;231.82;28.52;;;;;;;13.42;70.03;102401.16;5009665;28;20022;-84
2021/05/30 03:57:35;;;;;;;194.82;23.63;;;;;;;13.30;70.31;102405.63;5011494;28;20030;-83
2021/05/30 04:00:03;;;;;;;369.60;30.50;;;;;;;13.23;70.91;102404.31;5009668;28;20533;-84
2021/05/30 04:02:28;;;;;;;401.38;31.25;;;;;;;13.24;71.06;102398.78;5011050;28;20026;-83
2021/05/30 04:04:53;;;;;;;132.07;25.63;;;;;;;13.43;69.61;102405.56;5010715;28;20025;-84
2021/05/30 04:07:19;;;;;;;228.27;25.35;;;;;;;13.53;70.28;102403.94;5009578;28;20037;-83
2021/05/30 04:09:44;;;;;;;339.33;32.70;;;;;;;13.54;69.60;102403.81;5009506;28;20038;-83
2021/05/30 04:12:10;;;;;;;247.52;29.52;;;;;;;13.67;68.93;102403.75;5009361;28;20103;-83
2021/05/30 04:14:35;;;;;;;215.88;28.98;;;;;;;13.65;69.32;102404.84;5010847;28;20068;-83
2021/05/30 04:17:00;;;;;;;101.38;23.27;;;;;;;13.87;68.49;102398.69;5011052;28;20486;-83
2021/05/30 04:19:26;;;;;;;290.90;31.45;;;;;;;13.41;70.24;102400.31;5025476;28;20088;-83
2021/05/30 04:21:51;;;;;;;75.53;21.23;;;;;;;13.70;69.36;102398.09;5009431;28;20052;-83
2021/05/30 04:24:16;;;;;;;244.43;31.02;;;;;;;13.76;69.15;102400.34;5008382;28;20386;-84
2021/05/30 04:26:42;;;;;;;82.53;22.50;;;;;;;13.71;69.59;102399.84;5025661;28;20034;-83
2021/05/30 04:29:07;;;;;;;295.25;34.03;;;;;;;13.65;69.62;102394.91;5009157;28;20037;-83
2021/05/30 04:31:33;;;;;;;287.42;30.48;;;;;;;13.70;69.61;102403.50;5008868;28;20422;-83
2021/05/30 04:33:58;;;;;;;305.42;31.25;;;;;;;13.90;68.83;102404.72;5010477;28;20030;-83
2021/05/30 04:36:23;;;;;;;75.93;25.48;;;;;;;13.78;69.65;102402.94;5010371;28;20038;-82
2021/05/30 04:38:49;;;;;;;149.70;25.55;;;;;;;13.87;68.83;102406.81;5008739;28;20029;-83
2021/05/30 04:41:14;;;;;;;133.95;25.90;;;;;;;13.79;68.30;102400.13;5009066;28;20030;-83
2021/05/30 04:43:39;;;;;;;258.58;31.20;;;;;;;13.86;70.01;102407.75;5009121;28;20032;-82
2021/05/30 04:46:05;;;;;;;173.45;28.45;;;;;;;13.78;69.18;102402.94;5008812;28;20030;-83
2021/05/30 04:48:30;;;;;;;196.48;28.70;;;;;;;13.71;70.13;102407.06;5010294;28;20500;-82
2021/05/30 04:51:05;;;;;;;126.72;28.33;;;;;;;13.99;68.70;102408.56;5010109;28;20049;-82
2021/05/30 04:53:37;;;;;;;117.90;25.30;;;;;;;14.07;68.44;102407.97;5010193;28;20498;-82
2021/05/30 04:56:04;;;;;;;130.02;26.85;;;;;;;14.13;67.84;102410.22;5010135;28;20064;-82
2021/05/30 04:58:30;;;;;;;155.88;28.65;;;;;;;14.00;68.88;102413.00;5009070;28;20505;-83
2021/05/30 05:00:56;;;;;;;66.65;29.17;;;;;;;13.98;68.65;102413.09;5024813;28;20125;-83
2021/05/30 05:03:21;;;;;;;178.88;30.02;;;;;;;13.99;69.04;102413.97;5010043;28;20105;-83
2021/05/30 05:05:46;;;;;;;354.98;33.13;;;;;;;13.83;68.87;102410.69;5010165;28;20037;-83
2021/05/30 05:08:12;;;;;;;102.78;27.40;;;;;;;14.11;68.22;102413.03;5010131;28;20233;-83
2021/05/30 05:10:37;;;;;;;44.55;22.42;;;;;;;14.07;68.53;102416.94;5007513;28;20068;-83
2021/05/30 05:13:03;;;;;;;71.80;25.80;;;;;;;14.35;66.87;102410.25;5009769;28;20482;-83
2021/05/30 05:15:28;;;;;;;249.75;31.63;;;;;;;14.01;67.44;102420.13;5010378;28;20112;-83
2021/05/30 05:17:53;;;;;;;150.75;28.38;;;;;;;14.00;68.07;102423.81;5024922;28;20080;-83
2021/05/30 05:20:19;;;;;;;110.88;27.27;;;;;;;13.77;69.19;102414.72;5009928;28;20025;-83
2021/05/30 05:22:44;;;;;;;127.93;22.00;;;;;;;13.64;69.57;102403.97;5008257;28;20038;-82
2021/05/30 05:25:10;;;;;;;69.72;23.33;;;;;;;13.60;70.65;102412.44;5011481;28;20109;-83
2021/05/30 05:27:35;;;;;;;203.48;27.67;;;;;;;13.56;71.17;102403.72;5024788;28;20033;-83
2021/05/30 05:30:01;;;;;;;102.38;25.45;;;;;;;13.64;70.86;102408.53;5008530;28;20030;-83
2021/05/30 05:32:26;;;;;;;125.40;26.35;;;;;;;13.62;70.32;102403.25;5010003;28;20405;-83
2021/05/30 05:34:51;;;;;;;156.80;24.90;;;;;;;13.72;69.91;102398.88;5011869;28;20444;-83
2021/05/30 05:37:17;;;;;;;39.50;21.98;;;;;;;14.06;68.92;102406.25;5012042;28;20033;-83
2021/05/30 05:39:42;;;;;;;124.28;21.65;;;;;;;14.12;68.62;102403.94;5028984;28;20091;-82
2021/05/30 05:42:08;;;;;;;83.32;23.15;;;;;;;14.08;69.43;102405.16;5013787;28;20037;-83
2021/05/30 05:44:33;;;;;;;64.78;21.13;;;;;;;14.22;68.35;102404.94;5013861;28;20061;-83
2021/05/30 05:46:59;;;;;;;121.68;23.27;;;;;;;14.25;67.87;102403.84;5013707;28;20603;-83
2021/05/30 05:49:24;;;;;;;40.15;19.63;;;;;;;14.45;68.05;102399.59;5013631;28;20480;-83
2021/05/30 05:51:49;;;;;;;44.95;21.23;;;;;;;14.48;67.59;102399.34;5013461;28;20049;-83
2021/05/30 05:54:15;;;;;;;167.50;24.95;;;;;;;14.43;67.45;102402.41;5013925;28;20064;-83
2021/05/30 05:56:40;;;;;;;29.85;19.05;;;;;;;14.64;66.92;102405.31;5013867;28;20057;-83
2021/05/30 05:59:05;;;;;;;47.22;20.48;;;;;;;14.92;65.35;102412.09;5013659;28;20462;-83
2021/05/30 06:01:31;;;;;;;36.97;19.33;;;;;;;14.68;66.18;102414.03;5013172;28;20030;-83
2021/05/30 06:03:56;;;;;;;108.40;23.23;;;;;;;14.60;66.62;102411.06;5013436;28;20121;-83
2021/05/30 06:06:21;;;;;;;113.78;21.70;;;;;;;14.22;67.81;102412.19;5011645;28;20478;-83
2021/05/30 06:08:47;;;;;;;51.30;19.40;;;;;;;14.45;68.05;102413.13;5012007;28;20077;-83
2021/05/30 06:11:12;;;;;;;83.05;18.30;;;;;;;14.22;68.19;102404.94;5013662;28;20049;-82
2021/05/30 06:13:37;;;;;;;69.47;19.35;;;;;;;14.06;69.49;102406.25;5012892;28;20037;-82
2021/05/30 06:16:05;;;;;;;184.07;23.33;;;;;;;14.10;69.85;102408.59;5013035;28;20029;-81
2021/05/30 06:18:31;;;;;;;46.42;19.25;;;;;;;14.25;69.20;102406.56;5028667;28;20068;-82
2021/05/30 06:20:56;;;;;;;53.95;21.10;;;;;;;14.46;68.52;102412.16;5028422;28;20453;-83
2021/05/30 06:23:22;;;;;;;77.00;20.80;;;;;;;14.07;70.01;102405.28;5012917;28;20030;-82
2021/05/30 06:25:47;;;;;;;47.53;19.45;;;;;;;14.24;69.81;102397.56;5013097;28;20041;-83
2021/05/30 06:28:12;;;;;;;111.53;22.95;;;;;;;14.36;69.17;102412.00;5011513;28;20462;-83
2021/05/30 06:30:40;;;;;;;145.60;24.45;;;;;;;14.14;69.84;102399.28;5012533;28;20092;-83
2021/05/30 06:33:07;;;;;;;66.55;23.17;;;;;;;14.26;68.95;102405.56;5013076;28;20060;-83
2021/05/30 06:35:35;;;;;;;28.88;18.60;;;;;;;14.51;68.95;102404.56;5012868;28;20569;-83
2021/05/30 06:38:01;;;;;;;36.47;19.65;;;;;;;14.53;68.45;102399.00;5012889;28;20060;-83
2021/05/30 06:40:26;;;;;;;31.98;19.42;;;;;;;14.58;69.01;102403.09;5012410;28;20494;-83
2021/05/30 06:42:52;;;;;;;36.15;18.25;;;;;;;14.83;68.17;102409.25;5012470;28;20121;-83
2021/05/30 06:45:17;;;;;;;40.55;20.38;;;;;;;15.09;66.36;102405.31;5012649;28;20025;-83
2021/05/30 06:47:42;;;;;;;29.92;19.02;;;;;;;15.29;65.85;102400.09;5011562;28;20850;-83
2021/05/30 06:50:08;;;;;;;24.08;17.98;;;;;;;15.28;65.53;102401.09;5010817;28;20088;-83
2021/05/30 06:52:33;;;;;;;72.97;23.15;;;;;;;15.13;65.46;102398.66;5012727;28;20141;-83
2021/05/30 06:54:59;;;;;;;30.08;19.35;;;;;;;15.37;65.20;102408.50;5012277;28;20441;-83
2021/05/30 06:57:24;;;;;;;58.00;24.90;;;;;;;15.44;64.80;102408.84;5012398;28;20402;-83
2021/05/30 06:59:50;;;;;;;27.85;19.02;;;;;;;15.52;64.97;102407.22;5012211;28;20044;-83
2021/05/30 07:02:16;;;;;;;65.45;22.92;;;;;;;15.42;65.14;102400.81;5010888;28;20057;-83
2021/05/30 07:04:42;;;;;;;46.17;21.08;;;;;;;15.17;66.43;102401.97;5013114;28;20040;-83
2021/05/30 07:07:07;;;;;;;52.05;22.17;;;;;;;15.27;66.01;102407.50;5010562;28;20474;-83
2021/05/30 07:09:32;;;;;;;36.35;21.33;;;;;;;15.56;65.24;102405.09;5011858;28;20398;-82
2021/05/30 07:11:58;;;;;;;26.30;20.45;;;;;;;15.36;65.95;102401.31;5010030;28;20034;-82
2021/05/30 07:14:23;;;;;;;24.67;19.83;;;;;;;15.82;64.92;102409.25;5012306;28;20108;-83
2021/05/30 07:16:48;;;;;;;28.40;20.52;;;;;;;16.06;64.13;102409.00;5012060;28;20032;-83
2021/05/30 07:19:14;;;;;;;26.88;20.60;;;;;;;16.18;63.45;102400.81;5010606;28;20033;-83
2021/05/30 07:21:39;;;;;;;28.75;20.45;;;;;;;16.40;62.70;102414.25;5010308;28;20124;-83
2021/05/30 07:24:05;;;;;;;29.95;21.50;;;;;;;16.11;63.43;102421.34;5011690;28;20034;-82
2021/05/30 07:26:31;;;;;;;31.10;22.30;;;;;;;15.88;64.16;102415.13;5026570;28;20030;-83
2021/05/30 07:28:56;;;;;;;27.83;21.10;;;;;;;16.13;63.50;102411.19;5010260;28;20026;-82
2021/05/30 07:31:21;;;;;;;35.22;21.92;;;;;;;16.18;63.69;102408.94;5009656;28;20030;-82
2021/05/30 07:33:47;;;;;;;42.95;21.33;;;;;;;15.98;64.03;102411.53;5011786;28;20029;-82
2021/05/30 07:36:13;;;;;;;26.65;20.95;;;;;;;15.87;64.27;102416.13;5010984;28;20029;-83
2021/05/30 07:38:38;;;;;;;46.03;23.65;;;;;;;15.77;64.87;102418.75;5011269;28;20030;-83
2021/05/30 07:41:04;;;;;;;32.13;23.20;;;;;;;15.76;65.51;102409.78;5009241;28;20018;-83
2021/05/30 07:43:29;;;;;;;30.42;22.38;;;;;;;16.09;64.63;102419.59;5011494;28;20030;-83
2021/05/30 07:45:55;;;;;;;38.20;22.10;;;;;;;16.26;64.59;102418.16;5009916;28;20033;-83
2021/05/30 07:48:20;;;;;;;28.42;21.60;;;;;;;16.61;63.07;102413.38;5026252;28;20038;-83
2021/05/30 07:50:46;;;;;;;38.67;24.50;;;;;;;16.75;62.06;102421.19;5011362;28;20038;-84
2021/05/30 07:53:12;;;;;;;31.17;22.13;;;;;;;16.94;61.47;102418.56;5011238;28;20529;-83
2021/05/30 07:55:38;;;;;;;31.60;23.50;;;;;;;16.64;62.82;102422.09;5010796;28;20121;-83
2021/05/30 07:58:03;;;;;;;37.58;25.63;;;;;;;16.91;61.45;102420.72;5010152;28;20435;-83
2021/05/30 08:00:28;;;;;;;32.20;24.48;;;;;;;17.02;61.51;102425.19;5010964;28;20037;-82
2021/05/30 08:02:54;;;;;;;29.67;21.60;;;;;;;17.35;61.29;102427.56;5009566;28;20088;-83
2021/05/30 08:05:20;;;;;;;38.00;24.95;;;;;;;17.58;59.47;102425.50;5025679;28;20073;-83
2021/05/30 08:07:47;;;;;;;33.13;21.80;;;;;;;17.57;59.41;102425.63;5011177;28;20033;-83
2021/05/30 08:10:13;;;;;;;30.60;23.30;;;;;;;17.64;59.61;102424.09;5025802;28;20037;-83
2021/05/30 08:12:39;;;;;;;30.98;22.23;;;;;;;17.84;59.75;102424.97;5025859;28;20034;-83
2021/05/30 08:15:05;;;;;;;29.10;23.25;;;;;;;17.92;59.04;102428.72;5010677;28;20041;-83
2021/05/30 08:17:31;;;;;;;38.22;23.73;;;;;;;17.82;58.85;102418.84;5010453;28;20034;-83
2021/05/30 08:19:57;;;;;;;29.27;22.70;;;;;;;17.95;59.17;102426.72;5010169;28;20022;-83
2021/05/30 08:22:22;;;;;;;30.52;22.13;;;;;;;18.06;58.56;102422.00;5010689;28;20032;-83
2021/05/30 08:24:47;;;;;;;31.23;22.75;;;;;;;18.10;57.98;102428.00;5025267;28;20037;-84
2021/05/30 08:27:14;;;;;;;33.78;21.77;;;;;;;18.00;58.75;102427.13;5011119;28;20042;-83
2021/05/30 08:29:40;;;;;;;28.05;21.60;;;;;;;17.83;59.08;102426.00;5012434;28;20034;-83
2021/05/30 08:32:07;;;;;;;28.85;21.02;;;;;;;17.74;60.02;102424.94;5025513;28;20021;-84
2021/05/30 08:34:32;;;;;;;27.23;20.20;;;;;;;17.59;60.87;102423.63;5009226;28;20070;-84
2021/05/30 08:36:58;;;;;;;28.52;22.10;;;;;;;17.52;60.93;102428.78;5010472;28;20033;-83
2021/05/30 08:39:23;;;;;;;28.42;22.25;;;;;;;17.47;61.48;102436.50;5010413;28;20033;-83
2021/05/30 08:41:48;;;;;;;31.73;21.38;;;;;;;17.48;61.85;102423.75;5010097;28;20041;-83
2021/05/30 08:44:14;;;;;;;29.33;20.60;;;;;;;17.50;61.77;102427.19;5009909;28;20057;-83
2021/05/30 08:46:41;;;;;;;29.30;21.45;;;;;;;17.53;61.58;102427.78;5010188;28;20049;-83
2021/05/30 08:49:07;;;;;;;28.10;20.77;;;;;;;17.39;61.93;102431.75;5009809;28;20080;-83
2021/05/30 08:51:38;;;;;;;32.22;22.73;;;;;;;17.28;62.43;102434.59;5009602;28;20056;-84
2021/05/30 08:54:16;;;;;;;30.83;22.33;;;;;;;17.32;62.58;102433.28;5009155;28;20038;-83
2021/05/30 08:56:43;;;;;;;30.02;22.27;;;;;;;17.33;62.20;102421.44;5010072;28;20034;-83
2021/05/30 08:59:20;;;;;;;26.55;19.58;;;;;;;17.35;64.03;102421.28;5010164;28;20084;-83
2021/05/30 09:01:46;;;;;;;27.42;19.63;;;;;;;17.32;63.28;102419.69;5009366;28;20056;-84
2021/05/30 09:04:12;;;;;;;30.77;19.90;;;;;;;17.29;63.19;102416.41;5009904;28;20040;-83
2021/05/30 09:06:40;;;;;;;30.80;21.60;;;;;;;17.24;64.86;102425.00;5024880;28;20386;-83
2021/05/30 09:09:08;;;;;;;29.20;20.05;;;;;;;17.38;63.57;102421.88;5009483;28;20030;-82
2021/05/30 09:11:44;;;;;;;29.05;20.45;;;;;;;17.45;63.54;102420.31;5009901;28;20029;-83
2021/05/30 09:14:16;;;;;;;27.48;19.80;;;;;;;17.53;63.39;102413.31;5009505;28;20037;-83
2021/05/30 09:16:53;;;;;;;27.20;19.77;;;;;;;17.52;63.23;102422.50;5009574;28;20030;-83
2021/05/30 09:19:44;;;;;;;22.88;17.63;;;;;;;17.61;62.85;102411.63;5009374;28;20044;-83
2021/05/30 09:22:25;;;;;;;21.10;17.55;;;;;;;17.71;63.47;102418.94;5007875;28;20053;-83
2021/05/30 09:24:50;;;;;;;27.08;18.00;;;;;;;17.76;63.52;102417.50;5024911;28;20040;-83
2021/05/30 09:27:21;;;;;;;24.02;18.30;;;;;;;17.74;63.46;102418.66;5009772;28;20026;-83
2021/05/30 09:30:11;;;;;;;27.50;18.02;;;;;;;17.83;61.90;102426.84;5008908;28;20033;-83
2021/05/30 09:33:04;;;;;;;29.00;15.93;;;;;;;17.84;61.43;102422.25;5010111;28;20034;-83
2021/05/30 09:35:51;;;;;;;24.83;16.10;;;;;;;17.86;61.98;102418.41;5008134;28;20450;-83
2021/05/30 09:38:37;;;;;;;25.98;16.73;;;;;;;17.88;62.12;102418.28;5010511;28;20136;-83
2021/05/30 09:41:08;;;;;;;26.05;16.85;;;;;;;17.99;63.73;102423.56;5010927;28;20505;-84
2021/05/30 09:43:48;;;;;;;25.13;16.10;;;;;;;18.03;62.52;102414.13;5025780;28;20040;-85
2021/05/30 09:46:17;;;;;;;25.15;14.63;;;;;;;18.13;61.77;102417.69;5010003;28;20521;-85
2021/05/30 09:48:55;;;;;;;23.63;15.80;;;;;;;18.06;61.56;102416.56;5025699;28;20109;-85
2021/05/30 09:51:23;;;;;;;28.63;15.95;;;;;;;18.13;60.97;102412.22;5009620;28;20030;-85
2021/05/30 09:53:49;;;;;;;23.75;14.65;;;;;;;18.13;61.43;102416.81;5009666;28;20026;-83
2021/05/30 09:56:26;;;;;;;24.08;13.25;;;;;;;18.20;60.42;102412.50;5011650;28;20029;-83
2021/05/30 09:58:52;;;;;;;24.08;14.77;;;;;;;18.22;60.83;102415.09;5010928;28;20398;-83
2021/05/30 10:01:18;;;;;;;24.40;14.90;;;;;;;18.23;62.23;102423.13;5010484;28;20106;-83
2021/05/30 10:03:43;;;;;;;31.25;14.82;;;;;;;18.25;61.36;102425.72;5009512;28;20065;-83
2021/05/30 10:06:09;;;;;;;22.52;15.05;;;;;;;18.27;60.04;102415.50;5008414;28;20038;-84
2021/05/30 10:08:34;;;;;;;19.50;12.45;;;;;;;18.33;60.71;102413.09;5024682;28;20112;-84
2021/05/30 10:11:00;;;;;;;23.42;12.27;;;;;;;18.34;60.86;102420.25;5008128;28;20509;-84
2021/05/30 10:13:25;;;;;;;21.40;13.30;;;;;;;18.48;61.45;102420.78;5009363;28;20034;-84
2021/05/30 10:15:51;;;;;;;23.63;12.00;;;;;;;18.35;58.60;102426.53;5024225;28;20033;-84
2021/05/30 10:18:28;;;;;;;26.67;11.50;;;;;;;18.46;58.74;102422.81;5007376;28;20061;-85
2021/05/30 10:20:56;;;;;;;19.35;10.80;;;;;;;18.58;58.87;102427.94;5008582;28;20038;-85
2021/05/30 10:23:22;;;;;;;18.02;11.10;;;;;;;18.48;58.06;102426.22;5012555;28;20128;-84
2021/05/30 10:25:48;;;;;;;14.18;9.88;;;;;;;18.60;59.34;102427.78;5011120;28;20033;-84
2021/05/30 10:28:14;;;;;;;17.25;10.07;;;;;;;18.67;57.54;102426.22;5012441;28;20034;-81
2021/05/30 10:30:45;;;;;;;18.08;10.57;;;;;;;18.59;57.14;102420.63;5012165;28;20553;-81
2021/05/30 10:33:17;;;;;;;15.68;8.85;;;;;;;18.73;56.68;102427.47;5012642;28;20037;-81
2021/05/30 10:35:47;;;;;;;14.18;7.75;;;;;;;18.81;55.82;102431.19;5010997;28;20121;-80
2021/05/30 10:38:40;;;;;;;13.23;7.13;;;;;;;18.83;54.87;102429.19;5012445;28;20114;-81
2021/05/30 10:41:18;;;;;;;10.45;6.20;;;;;;;18.89;54.05;102432.34;5010997;28;20907;-83
2021/05/30 10:43:45;;;;;;;8.82;5.70;;;;;;;19.05;54.53;102427.09;5010565;28;20036;-79
2021/05/30 10:46:11;;;;;;;9.43;5.03;;;;;;;19.07;52.71;102422.34;5010323;28;20474;-80
2021/05/30 10:48:38;;;;;;;8.43;4.30;;;;;;;19.18;51.35;102427.59;5010365;28;20041;-80
2021/05/30 10:53:45;;;;;;;8.70;5.35;;;;;;;19.18;51.11;102422.13;5011683;28;20371;-80
2021/05/30 10:56:23;;;;;;;6.40;4.47;;;;;;;19.15;47.54;102416.13;5010495;28;20481;-80
2021/05/30 10:59:03;;;;;;;10.95;5.70;;;;;;;19.25;50.55;102419.66;5010268;28;20036;-80
2021/05/30 11:01:39;;;;;;;9.70;6.00;;;;;;;19.31;52.14;102412.75;5010324;28;20474;-79
2021/05/30 11:04:27;;;;;;;10.60;5.65;;;;;;;19.34;51.63;102415.16;5011483;28;20268;-79
2021/05/30 11:06:58;;;;;;;7.50;4.55;;;;;;;19.26;49.26;102419.53;5009790;28;20029;-79
2021/05/30 11:09:44;;;;;;;8.83;5.00;;;;;;;19.41;49.34;102419.03;5020659;28;20045;-79
2021/05/30 11:12:28;;;;;;;15.45;6.13;;;;;;;19.39;48.96;102419.16;4990269;28;20029;-79